Thunder radar more information blitzortung!


Rain radar more information rain snow radar


Besuchen Sie unsere anderen Wetter Stationen:

Template documentation
and downloads

And another site


Sie finden unser Wetter-Infos auch auf:

warn

European Weather Network

WeatherCloud

Weather Underground

AWEKAS

HAMweather, WeatherForYou, PWS Weather

wettercom

Neuwetter

Wetter Netzwerk Deutschland



METAR-Meldungen aus der Umgebung

   
EDDW - Bremen
Aktualisierung: 24-09-2018 11:50
Light Showers, Regen, Teilweise bewölkt  
Light Showers, Regen, Teilweise bewölkt  
   Wind: Westen 29.6 km/h
Wind: Westen 29.6 km/h
Temperatur: 12°C
Taupunkt: 8°C
Luftfeuchte: 77%
Luftdruck: 1028 hPa
Bewölkt: Teilweise bewölkt
Sichtbarkeit: More than 10 km
Bewölkung: leicht bewölkt 2300 ft,
Teilweise bewölkt 3500 ft
EDDW 240950Z 28016KT 9999 -SHRA FEW023 SCT035CB 12/08 Q1028 TEMPO 28020G30KT
EDDT - Berlin
Aktualisierung: 24-09-2018 11:50
Stark bewölkt  
Stark bewölkt  
   Wind: WNW 25.9 km/h<br />Gust to 25.9 km/h
Wind: WNW 25.9 km/h
Gust to 25.9 km/h
Temperatur: 12°C
Taupunkt: 5°C
Luftfeuchte: 63%
Luftdruck: 1023 hPa
Bewölkt: Stark bewölkt
Sichtbarkeit: More than 10 km
Bewölkung: Stark bewölkt 3100 ft
EDDT 240950Z 30014G24KT 270V340 9999 BKN031 12/05 Q1023 NOSIG
EDDF - Frankfurt
Aktualisierung: 24-09-2018 11:50
Teilweise bewölkt  
Teilweise bewölkt  
   Wind: NW 14.8 km/h
Wind: NW 14.8 km/h
Temperatur: 14°C
Taupunkt: 5°C
Luftfeuchte: 55%
Luftdruck: 1033 hPa
Bewölkt: Teilweise bewölkt
Sichtbarkeit: More than 10 km
Bewölkung: Teilweise bewölkt 3200 ft
EDDF 240950Z 32008KT 260V350 9999 SCT032 14/05 Q1033 NOSIG
EDDM - Mnchen
Aktualisierung: 24-09-2018 11:50
Stark bewölkt  
Stark bewölkt  
   Wind: WNW 24.1 km/h
Wind: WNW 24.1 km/h
Temperatur: 10°C
Gefühlt: 7°C
Taupunkt: 3°C
Luftfeuchte: 62%
Luftdruck: 1032 hPa
Bewölkt: Stark bewölkt
Sichtbarkeit: More than 10 km
Bewölkung: Stark bewölkt 3000 ft
EDDM 240950Z 30013KT 250V320 9999 BKN030 10/03 Q1032 NOSIG
EDDH - Hamburg
Aktualisierung: 24-09-2018 11:50
Nearby Showers, Stark bewölkt  
Nearby Showers, Stark bewölkt  
   Wind: WNW 27.8 km/h
Wind: WNW 27.8 km/h
Temperatur: 12°C
Taupunkt: 4°C
Luftfeuchte: 58%
Luftdruck: 1026 hPa
Bewölkt: Stark bewölkt
Sichtbarkeit: More than 10 km
Bewölkung: leicht bewölkt 1500 ft,
Teilweise bewölkt 3600 ft,
Stark bewölkt 11000 ft
EDDH 240950Z 30015KT 9999 VCSH FEW015 SCT036CB BKN110 12/04 Q1026 TEMPO 30020G35KT
EDDL - Dsseldorf
Aktualisierung: 24-09-2018 11:50
leicht bewölkt  
leicht bewölkt  
   Wind: Westen 18.5 km/h
Wind: Westen 18.5 km/h
Temperatur: 14°C
Taupunkt: 7°C
Luftfeuchte: 63%
Luftdruck: 1033 hPa
Bewölkt: leicht bewölkt
Sichtbarkeit: More than 10 km
Bewölkung: leicht bewölkt 2600 ft
EDDL 240950Z 27010KT 250V310 9999 FEW026 14/07 Q1033 NOSIG

Script entwickelt von  Saratoga-weather.org Angepasst für das Template von  Weerstation Leuven

Von uns verwendete Ausrüstung:

Wetterstation
Davis VP2

Wetterprogramm
Meteobridge

WetterComputer
Asus WL -330N3G

Davis VP2

Meteobridge

Asus WL -330N3G